createdAt,value
2023-01-29T00:00:53.249Z,21.30
2023-01-29T00:02:25.137Z,22.80
2023-01-29T00:03:57.694Z,21.30
2023-01-29T00:05:29.575Z,19.60
2023-01-29T00:07:01.350Z,18.70
2023-01-29T00:08:38.195Z,18.30
2023-01-29T00:10:11.068Z,17.30
2023-01-29T00:11:42.982Z,16.60
2023-01-29T00:13:14.719Z,18.60
2023-01-29T00:14:46.435Z,17.80
2023-01-29T00:16:18.674Z,17.50
2023-01-29T00:17:50.437Z,19.20
2023-01-29T00:19:22.224Z,17.90
2023-01-29T00:20:54.235Z,17.90
2023-01-29T00:22:26.245Z,21.10
2023-01-29T00:23:59.202Z,20.30
2023-01-29T00:25:31.668Z,18.70
2023-01-29T00:27:03.637Z,18.30
2023-01-29T00:28:35.637Z,16.70
2023-01-29T00:30:19.248Z,16.00
2023-01-29T00:31:51.385Z,16.30
2023-01-29T00:33:23.175Z,16.20
2023-01-29T00:34:54.888Z,17.80
2023-01-29T00:36:27.881Z,19.70
2023-01-29T00:38:00.321Z,21.10
2023-01-29T00:39:47.375Z,20.10
2023-01-29T00:41:40.231Z,18.00
2023-01-29T00:43:30.846Z,16.70
2023-01-29T00:45:03.222Z,15.80
2023-01-29T00:46:35.245Z,16.00
2023-01-29T00:48:07.040Z,16.70
2023-01-29T00:49:38.805Z,19.40
2023-01-29T00:51:10.528Z,17.00
2023-01-29T00:52:42.375Z,16.70
2023-01-29T00:54:14.640Z,20.90
2023-01-29T00:55:46.464Z,23.00
2023-01-29T00:57:19.295Z,24.80
2023-01-29T00:58:51.406Z,17.20
2023-01-29T01:00:24.795Z,18.40
2023-01-29T01:02:15.280Z,17.20
2023-01-29T01:03:47.071Z,16.10
2023-01-29T01:05:20.577Z,18.50
2023-01-29T01:06:52.283Z,21.30
2023-01-29T01:08:42.829Z,16.20
2023-01-29T01:10:26.335Z,15.90
2023-01-29T01:11:58.010Z,17.60
2023-01-29T01:13:32.441Z,20.30
2023-01-29T01:15:04.898Z,17.90
2023-01-29T01:16:36.757Z,20.50
2023-01-29T01:18:08.501Z,20.30
2023-01-29T01:19:42.100Z,18.80
2023-01-29T01:21:13.862Z,18.50
2023-01-29T01:22:45.639Z,20.70
2023-01-29T01:24:17.486Z,17.20
2023-01-29T01:25:49.191Z,18.10
2023-01-29T01:27:20.980Z,20.70
2023-01-29T01:28:53.396Z,21.80
2023-01-29T01:30:26.996Z,21.70
2023-01-29T01:31:59.844Z,20.10
2023-01-29T01:33:31.706Z,21.30
2023-01-29T01:35:03.698Z,18.90
2023-01-29T01:36:35.571Z,20.20
2023-01-29T01:38:07.273Z,18.10
2023-01-29T01:39:38.962Z,16.70
2023-01-29T01:41:18.075Z,16.90
2023-01-29T01:42:56.692Z,16.80
2023-01-29T01:44:54.798Z,16.30
2023-01-29T01:46:37.454Z,18.80
2023-01-29T01:48:14.966Z,15.70
2023-01-29T01:49:47.516Z,17.40
2023-01-29T01:51:22.373Z,13.00
2023-01-29T01:53:05.019Z,15.10
2023-01-29T01:54:36.999Z,16.80
2023-01-29T01:56:16.325Z,15.90
2023-01-29T01:57:57.813Z,15.10
2023-01-29T01:59:29.670Z,15.00
2023-01-29T02:01:02.446Z,15.20
2023-01-29T02:02:52.758Z,14.30
2023-01-29T02:04:45.304Z,15.50
2023-01-29T02:06:37.138Z,13.40
2023-01-29T02:08:28.555Z,15.40
2023-01-29T02:10:12.456Z,14.30
2023-01-29T02:11:48.161Z,16.70
2023-01-29T02:13:22.259Z,16.80
2023-01-29T02:14:58.836Z,18.60
2023-01-29T02:16:37.724Z,13.80
2023-01-29T02:18:09.507Z,14.80
2023-01-29T02:20:05.603Z,14.80
2023-01-29T02:22:04.372Z,16.30
2023-01-29T02:24:32.007Z,16.80
2023-01-29T02:26:33.374Z,15.50
2023-01-29T02:29:22.439Z,14.10
2023-01-29T02:31:15.115Z,8.70
2023-01-29T02:32:58.909Z,13.30
2023-01-29T02:35:21.507Z,18.90
2023-01-29T02:37:10.470Z,17.80
2023-01-29T02:39:21.901Z,14.30
2023-01-29T02:41:27.650Z,14.90
2023-01-29T02:43:25.581Z,14.60
2023-01-29T02:45:16.167Z,12.10
2023-01-29T02:47:27.064Z,17.10
2023-01-29T02:49:35.662Z,14.40
2023-01-29T02:51:59.359Z,14.10
2023-01-29T02:53:51.405Z,13.60
2023-01-29T02:55:40.612Z,15.20
2023-01-29T02:57:29.077Z,13.90
2023-01-29T02:59:12.142Z,16.50
2023-01-29T03:00:48.244Z,21.10
2023-01-29T03:02:34.425Z,17.20
2023-01-29T03:04:18.802Z,14.90
2023-01-29T03:06:28.961Z,15.80
2023-01-29T03:08:10.279Z,19.40
2023-01-29T03:09:51.436Z,18.60
2023-01-29T03:11:30.013Z,15.80
2023-01-29T03:13:29.650Z,18.20
2023-01-29T03:15:12.213Z,16.80
2023-01-29T03:16:54.387Z,18.90
2023-01-29T03:18:32.343Z,17.20
2023-01-29T03:20:13.799Z,17.50
2023-01-29T03:21:59.529Z,17.50
2023-01-29T03:23:54.974Z,15.30
2023-01-29T03:25:47.382Z,13.20
2023-01-29T03:27:45.550Z,14.50
2023-01-29T03:29:35.860Z,12.90
2023-01-29T03:31:32.441Z,17.50
2023-01-29T03:33:12.453Z,14.60
2023-01-29T03:34:57.774Z,15.00
2023-01-29T03:36:45.192Z,14.60
2023-01-29T03:38:17.333Z,15.30
2023-01-29T03:39:49.504Z,17.50
2023-01-29T03:41:31.406Z,16.90
2023-01-29T03:43:10.354Z,15.40
2023-01-29T03:44:53.668Z,16.60
2023-01-29T03:46:53.267Z,20.00
2023-01-29T03:48:37.400Z,16.40
2023-01-29T03:50:54.530Z,17.40
2023-01-29T03:52:35.376Z,15.00
2023-01-29T03:54:26.839Z,19.20
2023-01-29T03:56:34.607Z,12.80
2023-01-29T03:58:20.594Z,12.60
2023-01-29T04:00:22.943Z,14.70
2023-01-29T04:02:05.379Z,14.80
2023-01-29T04:03:43.668Z,16.10
2023-01-29T04:05:25.466Z,17.10
2023-01-29T04:07:19.006Z,14.60
2023-01-29T04:09:03.958Z,14.70
2023-01-29T04:10:40.212Z,13.10
2023-01-29T04:12:18.732Z,16.10
2023-01-29T04:13:52.400Z,14.70
2023-01-29T04:15:29.962Z,13.50
2023-01-29T04:17:11.085Z,16.60
2023-01-29T04:18:50.265Z,19.10
2023-01-29T04:20:29.130Z,18.30
2023-01-29T04:22:10.624Z,15.50
2023-01-29T04:23:42.595Z,16.20
2023-01-29T04:25:29.016Z,14.10
2023-01-29T04:27:20.856Z,18.60
2023-01-29T04:29:10.370Z,14.60
2023-01-29T04:30:50.781Z,13.40
2023-01-29T04:32:40.751Z,14.20
2023-01-29T04:34:39.032Z,18.00
2023-01-29T04:36:46.549Z,16.00
2023-01-29T04:38:57.155Z,13.10
2023-01-29T04:41:03.280Z,13.50
2023-01-29T04:43:09.112Z,16.20
2023-01-29T04:45:01.084Z,11.60
2023-01-29T04:47:21.837Z,15.00
2023-01-29T04:49:23.859Z,13.10
2023-01-29T04:51:14.942Z,15.30
2023-01-29T04:53:13.117Z,15.70
2023-01-29T04:55:18.259Z,10.10
2023-01-29T04:57:27.391Z,12.50
2023-01-29T04:59:07.021Z,15.20
2023-01-29T05:00:46.638Z,12.70
2023-01-29T05:02:22.550Z,13.40
2023-01-29T05:03:56.099Z,14.60
2023-01-29T05:05:29.081Z,14.30
2023-01-29T05:07:12.445Z,14.80
2023-01-29T05:08:45.725Z,15.70
2023-01-29T05:10:21.244Z,13.00
2023-01-29T05:11:54.024Z,10.80
2023-01-29T05:13:29.958Z,15.10
2023-01-29T05:15:08.159Z,17.80
2023-01-29T05:16:47.504Z,15.70
2023-01-29T05:18:19.411Z,17.10
2023-01-29T05:19:51.176Z,15.70
2023-01-29T05:21:24.693Z,15.40
2023-01-29T05:22:56.551Z,14.70
2023-01-29T05:24:29.066Z,15.70
2023-01-29T05:26:00.920Z,14.40
2023-01-29T05:27:54.216Z,14.70
2023-01-29T05:29:25.975Z,14.90
2023-01-29T05:30:57.943Z,14.30
2023-01-29T05:32:29.731Z,14.00
2023-01-29T05:34:01.484Z,13.20
2023-01-29T05:35:34.798Z,14.20
2023-01-29T05:37:06.856Z,12.90
2023-01-29T05:38:38.583Z,14.20
2023-01-29T05:40:11.042Z,14.90
2023-01-29T05:41:43.835Z,11.80
2023-01-29T05:43:16.580Z,15.00
2023-01-29T05:44:48.631Z,10.20
2023-01-29T05:46:20.488Z,14.40
2023-01-29T05:48:02.346Z,14.30
2023-01-29T05:49:36.364Z,15.30
2023-01-29T05:51:08.964Z,13.90
2023-01-29T05:52:41.271Z,13.00
2023-01-29T05:54:13.979Z,14.80
2023-01-29T05:55:47.399Z,11.90
2023-01-29T05:57:19.172Z,15.70
2023-01-29T05:58:51.549Z,14.50
2023-01-29T06:00:23.783Z,15.40
2023-01-29T06:01:55.490Z,15.20
2023-01-29T06:03:27.430Z,13.50
2023-01-29T06:04:59.165Z,13.80
2023-01-29T06:06:30.919Z,12.90
2023-01-29T06:08:02.706Z,13.00
2023-01-29T06:09:34.516Z,15.30
2023-01-29T06:11:12.892Z,14.70
2023-01-29T06:12:44.850Z,14.00
2023-01-29T06:14:16.851Z,15.50
2023-01-29T06:15:48.617Z,14.20
2023-01-29T06:17:20.381Z,14.30
2023-01-29T06:18:52.591Z,13.50
2023-01-29T06:20:25.068Z,13.00
2023-01-29T06:21:56.784Z,12.70
2023-01-29T06:23:29.200Z,11.60
2023-01-29T06:25:00.919Z,12.10
2023-01-29T06:26:32.842Z,15.50
2023-01-29T06:28:04.868Z,11.40
2023-01-29T06:29:36.709Z,13.80
2023-01-29T06:31:26.579Z,14.10
2023-01-29T06:33:01.985Z,13.70
2023-01-29T06:34:33.799Z,14.90
2023-01-29T06:36:06.324Z,14.20
2023-01-29T06:37:38.317Z,14.60
2023-01-29T06:39:10.348Z,13.70
2023-01-29T06:40:42.019Z,15.00
2023-01-29T06:42:13.773Z,14.80
2023-01-29T06:43:46.371Z,14.20
2023-01-29T06:45:21.277Z,16.40
2023-01-29T06:46:53.085Z,12.60
2023-01-29T06:48:25.405Z,12.90
2023-01-29T06:49:57.094Z,13.50
2023-01-29T06:51:29.273Z,12.50
2023-01-29T06:53:01.138Z,15.40
2023-01-29T06:54:33.007Z,12.70
2023-01-29T06:56:06.421Z,14.80
2023-01-29T06:57:38.141Z,16.30
2023-01-29T06:59:12.372Z,13.40
2023-01-29T07:00:44.303Z,14.80
2023-01-29T07:02:16.937Z,13.80
2023-01-29T07:03:51.423Z,14.80
2023-01-29T07:05:23.120Z,13.90
2023-01-29T07:06:54.847Z,14.60
2023-01-29T07:08:26.650Z,13.20
2023-01-29T07:09:58.349Z,12.40
2023-01-29T07:11:30.433Z,12.80
2023-01-29T07:13:02.288Z,12.80
2023-01-29T07:14:34.112Z,13.60
2023-01-29T07:16:06.939Z,13.60
2023-01-29T07:17:39.660Z,12.30
2023-01-29T07:19:11.459Z,14.70
2023-01-29T07:20:43.900Z,13.20
2023-01-29T07:22:16.360Z,16.00
2023-01-29T07:23:48.108Z,15.70
2023-01-29T07:25:21.469Z,11.50
2023-01-29T07:26:53.691Z,15.60
2023-01-29T07:28:25.420Z,13.40
2023-01-29T07:29:57.149Z,14.00
2023-01-29T07:31:29.059Z,13.50
2023-01-29T07:33:05.865Z,13.00
2023-01-29T07:34:39.189Z,14.10
2023-01-29T07:36:12.745Z,13.70
2023-01-29T07:37:44.669Z,16.00
2023-01-29T07:39:16.390Z,13.70
2023-01-29T07:40:48.917Z,15.20
2023-01-29T07:42:20.648Z,14.30
2023-01-29T07:43:52.670Z,15.40
2023-01-29T07:45:24.397Z,15.00
2023-01-29T07:46:56.056Z,15.10
2023-01-29T07:48:27.759Z,13.00
2023-01-29T07:49:59.572Z,15.40
2023-01-29T07:51:32.328Z,14.80
2023-01-29T07:53:04.787Z,15.30
2023-01-29T07:54:36.796Z,15.70
2023-01-29T07:56:08.561Z,14.20
2023-01-29T07:57:40.297Z,17.00
2023-01-29T07:59:12.075Z,11.30
2023-01-29T08:00:44.765Z,14.60
2023-01-29T08:02:17.024Z,14.20
2023-01-29T08:03:50.586Z,17.70
2023-01-29T08:05:23.010Z,14.50
2023-01-29T08:06:54.898Z,17.40
2023-01-29T08:08:26.585Z,13.80
2023-01-29T08:09:58.520Z,15.00
2023-01-29T08:11:30.334Z,14.40
2023-01-29T08:13:03.722Z,12.50
2023-01-29T08:14:35.489Z,10.80
2023-01-29T08:16:08.193Z,15.10
2023-01-29T08:17:56.052Z,17.70
2023-01-29T08:19:31.894Z,11.30
2023-01-29T08:21:04.428Z,16.80
2023-01-29T08:22:36.398Z,15.60
2023-01-29T08:24:08.284Z,13.10
2023-01-29T08:25:40.723Z,15.40
2023-01-29T08:27:12.465Z,15.80
2023-01-29T08:28:44.175Z,15.50
2023-01-29T08:30:16.968Z,14.90
2023-01-29T08:31:49.388Z,14.30
2023-01-29T08:33:29.796Z,13.30
2023-01-29T08:35:05.951Z,14.10
2023-01-29T08:36:37.743Z,16.10
2023-01-29T08:38:10.653Z,16.90
2023-01-29T08:41:19.595Z,15.20
2023-01-29T08:42:51.471Z,15.60
2023-01-29T08:44:23.223Z,14.70
2023-01-29T08:45:55.089Z,14.60
2023-01-29T08:47:28.639Z,18.00
2023-01-29T08:49:00.849Z,15.10
2023-01-29T08:50:34.941Z,16.60
2023-01-29T08:52:06.763Z,14.00
2023-01-29T08:53:38.550Z,16.80
2023-01-29T08:55:11.454Z,17.50
2023-01-29T08:56:43.450Z,14.40
2023-01-29T08:58:15.160Z,16.60
2023-01-29T08:59:46.899Z,15.60
2023-01-29T09:01:18.679Z,15.80
2023-01-29T09:02:50.657Z,15.80
2023-01-29T09:04:22.502Z,16.90
2023-01-29T09:05:54.275Z,13.80
2023-01-29T09:07:26.106Z,13.80
2023-01-29T09:08:57.834Z,14.60
2023-01-29T09:10:29.551Z,14.80
2023-01-29T09:12:01.257Z,12.00
2023-01-29T09:13:34.163Z,14.50
2023-01-29T09:15:06.515Z,14.10
2023-01-29T09:16:38.304Z,15.80
2023-01-29T09:18:10.069Z,15.70
2023-01-29T09:19:41.912Z,12.80
2023-01-29T09:21:13.769Z,16.20
2023-01-29T09:22:46.915Z,14.40
2023-01-29T09:24:18.737Z,12.10
2023-01-29T09:25:50.703Z,14.00
2023-01-29T09:27:22.540Z,10.20
2023-01-29T09:28:55.261Z,14.90
2023-01-29T09:30:27.158Z,15.00
2023-01-29T09:31:58.956Z,10.70
2023-01-29T09:33:31.161Z,11.30
2023-01-29T09:35:02.912Z,17.80
2023-01-29T09:36:34.670Z,13.30
2023-01-29T09:38:06.369Z,14.70
2023-01-29T09:39:38.150Z,13.90
2023-01-29T09:42:11.198Z,15.10
2023-01-29T09:44:03.934Z,15.30
2023-01-29T09:45:37.672Z,15.10
2023-01-29T09:47:15.697Z,14.90
2023-01-29T09:48:52.115Z,13.80
2023-01-29T09:50:32.815Z,11.30
2023-01-29T09:52:18.783Z,9.90
2023-01-29T09:54:26.010Z,13.70
2023-01-29T09:56:06.026Z,12.60
2023-01-29T09:57:55.796Z,14.30
2023-01-29T09:59:31.810Z,8.50
2023-01-29T10:01:19.750Z,12.80
2023-01-29T10:03:41.167Z,15.50
2023-01-29T10:05:38.789Z,13.90
2023-01-29T10:08:04.145Z,13.60
2023-01-29T10:10:09.627Z,11.10
2023-01-29T10:12:12.695Z,14.90
2023-01-29T10:14:47.953Z,14.40
2023-01-29T10:16:54.636Z,11.90
2023-01-29T10:18:47.882Z,13.60
2023-01-29T10:20:52.733Z,15.50
2023-01-29T10:22:53.778Z,14.00
2023-01-29T10:24:58.397Z,14.20
2023-01-29T10:26:34.349Z,14.50
2023-01-29T10:28:28.333Z,14.20
2023-01-29T10:30:03.573Z,13.20
2023-01-29T10:31:40.509Z,14.50
2023-01-29T10:33:26.143Z,11.30
2023-01-29T10:35:17.099Z,14.30
2023-01-29T10:36:50.106Z,13.20
2023-01-29T10:38:44.005Z,15.50
2023-01-29T10:40:21.747Z,13.50
2023-01-29T10:42:19.030Z,12.40
2023-01-29T10:44:26.572Z,15.60
2023-01-29T10:46:28.848Z,15.60
2023-01-29T10:48:25.904Z,14.80
2023-01-29T10:50:55.113Z,13.40
2023-01-29T10:52:59.035Z,13.10
2023-01-29T10:54:55.028Z,11.90
2023-01-29T10:57:16.719Z,13.40
2023-01-29T10:58:54.888Z,14.60
2023-01-29T11:00:37.003Z,13.70
2023-01-29T11:02:22.596Z,15.40
2023-01-29T11:04:04.374Z,15.00
2023-01-29T11:05:51.776Z,16.20
2023-01-29T11:07:23.684Z,11.60
2023-01-29T11:11:24.534Z,10.70
2023-01-29T11:12:58.134Z,13.80
2023-01-29T11:14:52.803Z,15.00
2023-01-29T11:16:25.630Z,13.90
2023-01-29T11:18:15.813Z,13.50
2023-01-29T11:19:55.386Z,14.00
2023-01-29T11:21:29.830Z,11.80
2023-01-29T11:23:01.845Z,14.00
2023-01-29T11:24:33.562Z,11.10
2023-01-29T11:26:07.126Z,13.80
2023-01-29T11:28:06.155Z,14.30
2023-01-29T11:29:50.708Z,12.30
2023-01-29T11:31:35.340Z,14.80
2023-01-29T11:33:23.740Z,12.90
2023-01-29T11:35:06.413Z,13.70
2023-01-29T11:36:40.167Z,13.90
2023-01-29T11:38:26.059Z,12.30
2023-01-29T11:39:57.872Z,9.00
2023-01-29T11:41:29.601Z,13.70
2023-01-29T11:43:28.129Z,13.80
2023-01-29T11:45:00.738Z,10.10
2023-01-29T11:46:32.518Z,12.90
2023-01-29T11:48:05.061Z,11.20
2023-01-29T11:49:39.190Z,11.50
2023-01-29T11:51:22.365Z,13.90
2023-01-29T11:52:55.373Z,13.60
2023-01-29T11:54:34.220Z,11.60
2023-01-29T11:56:23.752Z,10.20
2023-01-29T11:58:13.573Z,13.30
2023-01-29T11:59:51.571Z,12.60
2023-01-29T12:01:42.330Z,12.60
2023-01-29T12:03:22.077Z,13.10
2023-01-29T12:05:04.756Z,12.80
2023-01-29T12:06:44.012Z,10.80
2023-01-29T12:08:18.652Z,10.50
2023-01-29T12:09:59.686Z,14.10
2023-01-29T12:11:34.902Z,13.60
2023-01-29T12:13:24.192Z,14.20
2023-01-29T12:15:25.102Z,14.20
2023-01-29T12:17:06.411Z,12.20
2023-01-29T12:18:51.023Z,11.80
2023-01-29T12:20:31.874Z,11.10
2023-01-29T12:22:13.554Z,14.00
2023-01-29T12:24:49.580Z,13.90
2023-01-29T12:26:32.699Z,10.00
2023-01-29T12:28:22.567Z,10.10
2023-01-29T12:30:03.157Z,8.90
2023-01-29T12:32:27.529Z,11.50
2023-01-29T12:34:33.685Z,11.60
2023-01-29T12:36:26.876Z,11.50
2023-01-29T12:38:08.638Z,12.70
2023-01-29T12:39:40.623Z,12.90
2023-01-29T12:41:34.934Z,13.80
2023-01-29T12:43:16.840Z,14.20
2023-01-29T12:44:57.340Z,10.70
2023-01-29T12:46:37.336Z,12.60
2023-01-29T12:48:16.361Z,12.80
2023-01-29T12:49:55.985Z,11.20
2023-01-29T12:51:42.483Z,10.00
2023-01-29T12:53:23.124Z,11.70
2023-01-29T12:55:11.417Z,11.00
2023-01-29T12:56:49.991Z,12.50
2023-01-29T12:58:32.102Z,13.00
2023-01-29T13:00:15.828Z,13.80
2023-01-29T13:02:12.051Z,12.00
2023-01-29T13:04:07.062Z,12.20
2023-01-29T13:05:47.040Z,11.70
2023-01-29T13:07:30.546Z,10.60
2023-01-29T13:09:09.596Z,9.30
2023-01-29T13:10:46.892Z,10.80
2023-01-29T13:12:22.167Z,11.50
2023-01-29T13:14:04.152Z,11.80
2023-01-29T13:15:42.209Z,12.20
2023-01-29T13:17:26.528Z,13.90
2023-01-29T13:19:03.679Z,12.30
2023-01-29T13:20:35.659Z,7.30
2023-01-29T13:22:24.507Z,11.50
2023-01-29T13:24:03.362Z,9.70
2023-01-29T13:25:35.092Z,14.20
2023-01-29T13:27:07.751Z,15.00
2023-01-29T13:28:39.957Z,13.80
2023-01-29T13:30:32.936Z,13.80
2023-01-29T13:32:05.796Z,13.80
2023-01-29T13:33:40.865Z,14.40
2023-01-29T13:35:15.907Z,11.60
2023-01-29T13:36:59.082Z,15.70
2023-01-29T13:38:35.359Z,12.00
2023-01-29T13:40:31.708Z,13.10
2023-01-29T13:42:21.249Z,9.90
2023-01-29T13:43:53.051Z,14.10
2023-01-29T13:45:43.478Z,10.30
2023-01-29T13:47:28.969Z,12.10
2023-01-29T13:49:04.902Z,8.70
2023-01-29T13:50:43.307Z,11.50
2023-01-29T13:52:23.613Z,11.10
2023-01-29T13:54:16.749Z,10.90
2023-01-29T13:55:48.708Z,12.90
2023-01-29T13:57:56.143Z,13.50
2023-01-29T14:00:05.946Z,13.60
2023-01-29T14:01:49.597Z,13.30
2023-01-29T14:03:21.295Z,11.50
2023-01-29T14:05:31.111Z,13.60
2023-01-29T14:07:41.268Z,10.00
2023-01-29T14:09:37.791Z,12.30
2023-01-29T14:11:15.630Z,10.40
2023-01-29T14:12:50.934Z,13.40
2023-01-29T14:14:59.353Z,12.20
2023-01-29T14:16:36.395Z,13.00
2023-01-29T14:18:11.106Z,9.70
2023-01-29T14:19:59.029Z,10.30
2023-01-29T14:21:37.087Z,10.70
2023-01-29T14:23:28.953Z,13.20
2023-01-29T14:25:05.708Z,9.90
2023-01-29T14:26:47.443Z,12.10
2023-01-29T14:28:28.612Z,12.40
2023-01-29T14:30:09.862Z,9.90
2023-01-29T14:31:47.532Z,11.40
2023-01-29T14:33:27.954Z,8.90
2023-01-29T14:35:04.148Z,11.00
2023-01-29T14:36:42.140Z,13.40
2023-01-29T14:38:15.245Z,11.00
2023-01-29T14:39:53.035Z,9.70
2023-01-29T14:41:34.319Z,13.20
2023-01-29T14:43:19.887Z,10.90
2023-01-29T14:44:54.650Z,10.10
2023-01-29T14:46:46.720Z,11.50
2023-01-29T14:48:39.551Z,12.60
2023-01-29T14:50:29.936Z,12.40
2023-01-29T14:52:02.845Z,12.80
2023-01-29T14:53:58.922Z,9.50
2023-01-29T14:55:58.106Z,12.00
2023-01-29T14:57:31.483Z,11.60
2023-01-29T14:59:30.311Z,10.80
2023-01-29T15:01:11.985Z,13.70
2023-01-29T15:02:45.483Z,13.00
2023-01-29T15:04:36.669Z,13.00
2023-01-29T15:06:16.269Z,10.70
2023-01-29T15:08:03.337Z,10.90
2023-01-29T15:10:01.336Z,12.90
2023-01-29T15:12:31.380Z,8.90
2023-01-29T15:14:32.817Z,10.70
2023-01-29T15:16:21.145Z,9.50
2023-01-29T15:18:23.086Z,10.90
2023-01-29T15:19:56.693Z,10.80
2023-01-29T15:21:28.450Z,12.50
2023-01-29T15:23:03.372Z,10.90
2023-01-29T15:24:37.447Z,12.00
2023-01-29T15:26:19.592Z,12.80
2023-01-29T15:27:52.286Z,10.60
2023-01-29T15:29:27.906Z,12.30
2023-01-29T15:31:06.312Z,13.20
2023-01-29T15:32:40.342Z,13.30
2023-01-29T15:34:12.241Z,11.80
2023-01-29T15:35:44.185Z,12.70
2023-01-29T15:37:27.473Z,9.60
2023-01-29T15:39:23.561Z,12.40
2023-01-29T15:41:01.855Z,13.20
2023-01-29T15:42:48.651Z,14.50
2023-01-29T15:44:22.998Z,13.30
2023-01-29T15:46:12.504Z,12.80
2023-01-29T15:47:44.537Z,11.20
2023-01-29T15:49:40.032Z,12.70
2023-01-29T15:51:22.275Z,8.70
2023-01-29T15:52:55.989Z,10.90
2023-01-29T15:54:33.203Z,9.90
2023-01-29T15:56:11.756Z,12.20
2023-01-29T15:57:45.277Z,13.90
2023-01-29T15:59:31.148Z,12.50
2023-01-29T16:01:03.846Z,11.10
2023-01-29T16:02:39.636Z,12.50
2023-01-29T16:04:26.910Z,8.80
2023-01-29T16:06:00.346Z,11.70
2023-01-29T16:07:33.057Z,12.10
2023-01-29T16:09:06.511Z,13.20
2023-01-29T16:10:42.251Z,11.80
2023-01-29T16:12:14.351Z,12.10
2023-01-29T16:13:50.310Z,12.70
2023-01-29T16:15:32.356Z,14.80
2023-01-29T16:17:25.033Z,13.20
2023-01-29T16:19:00.882Z,13.20
2023-01-29T16:20:50.057Z,11.80
2023-01-29T16:22:21.857Z,8.10
2023-01-29T16:24:07.485Z,12.90
2023-01-29T16:25:40.243Z,12.00
2023-01-29T16:27:14.864Z,12.00
2023-01-29T16:28:47.660Z,12.00
2023-01-29T16:30:19.802Z,12.80
2023-01-29T16:32:00.530Z,13.10
2023-01-29T16:33:39.912Z,12.60
2023-01-29T16:35:17.249Z,13.50
2023-01-29T16:36:50.727Z,11.50
2023-01-29T16:38:33.217Z,8.90
2023-01-29T16:40:26.831Z,12.80
2023-01-29T16:42:17.202Z,14.30
2023-01-29T16:43:52.032Z,13.50
2023-01-29T16:45:28.776Z,14.40
2023-01-29T16:47:14.943Z,13.40
2023-01-29T16:48:47.792Z,11.80
2023-01-29T16:50:43.253Z,11.80
2023-01-29T16:52:34.415Z,14.50
2023-01-29T16:54:18.387Z,13.30
2023-01-29T16:55:52.567Z,11.50
2023-01-29T16:57:31.582Z,13.40
2023-01-29T16:59:05.922Z,10.80
2023-01-29T17:00:43.024Z,11.20
2023-01-29T17:02:28.391Z,10.80
2023-01-29T17:04:17.284Z,11.70
2023-01-29T17:05:50.902Z,11.70
2023-01-29T17:07:23.751Z,12.60
2023-01-29T17:08:55.858Z,14.00
2023-01-29T17:10:30.112Z,12.90
2023-01-29T17:12:18.595Z,12.40
2023-01-29T17:13:50.533Z,13.70
2023-01-29T17:15:45.554Z,9.90
2023-01-29T17:17:18.882Z,12.20
2023-01-29T17:18:50.758Z,10.40
2023-01-29T17:20:23.418Z,12.40
2023-01-29T17:21:57.113Z,11.90
2023-01-29T17:23:28.829Z,11.10
2023-01-29T17:25:00.592Z,11.10
2023-01-29T17:26:32.605Z,11.80
2023-01-29T17:28:04.718Z,11.80
2023-01-29T17:29:36.539Z,11.30
2023-01-29T17:31:09.284Z,12.70
2023-01-29T17:32:44.310Z,11.80
2023-01-29T17:34:18.574Z,12.80
2023-01-29T17:35:50.687Z,10.90
2023-01-29T17:37:22.360Z,11.60
2023-01-29T17:38:54.223Z,10.70
2023-01-29T17:40:41.317Z,11.60
2023-01-29T17:42:15.166Z,8.20
2023-01-29T17:43:47.128Z,11.90
2023-01-29T17:45:19.249Z,12.20
2023-01-29T17:46:51.172Z,13.20
2023-01-29T17:48:25.025Z,11.60
2023-01-29T17:49:57.758Z,12.70
2023-01-29T17:51:29.484Z,12.20
2023-01-29T17:53:02.713Z,9.90
2023-01-29T17:54:34.472Z,10.50
2023-01-29T17:56:06.758Z,8.00
2023-01-29T17:57:38.506Z,11.60
2023-01-29T17:59:29.417Z,13.40
2023-01-29T18:01:01.394Z,12.70
2023-01-29T18:02:33.204Z,14.20
2023-01-29T18:04:05.444Z,11.70
2023-01-29T18:05:37.247Z,13.90
2023-01-29T18:07:10.624Z,12.20
2023-01-29T18:08:42.392Z,9.80
2023-01-29T18:10:20.695Z,12.00
2023-01-29T18:11:54.074Z,13.10
2023-01-29T18:13:25.912Z,11.80
2023-01-29T18:14:57.687Z,12.20
2023-01-29T18:16:36.464Z,12.70
2023-01-29T18:18:15.148Z,12.20
2023-01-29T18:19:46.852Z,13.50
2023-01-29T18:21:19.407Z,11.30
2023-01-29T18:22:51.763Z,12.70
2023-01-29T18:24:23.599Z,13.50
2023-01-29T18:25:57.645Z,12.20
2023-01-29T18:27:29.399Z,11.50
2023-01-29T18:29:01.147Z,13.30
2023-01-29T18:30:33.232Z,11.50
2023-01-29T18:32:05.607Z,11.50
2023-01-29T18:33:37.397Z,10.10
2023-01-29T18:35:09.733Z,10.70
2023-01-29T18:36:46.575Z,12.60
2023-01-29T18:38:18.323Z,11.70
2023-01-29T18:39:50.131Z,12.10
2023-01-29T18:41:21.975Z,11.40
2023-01-29T18:42:53.777Z,12.90
2023-01-29T18:44:25.540Z,13.40
2023-01-29T18:45:59.098Z,12.20
2023-01-29T18:47:31.081Z,11.10
2023-01-29T18:49:02.936Z,10.20
2023-01-29T18:50:36.109Z,10.90
2023-01-29T18:52:08.143Z,12.20
2023-01-29T18:53:40.023Z,9.80
2023-01-29T18:55:11.727Z,12.00
2023-01-29T18:57:06.234Z,11.70
2023-01-29T18:58:37.055Z,12.60
2023-01-29T19:00:11.396Z,11.80
2023-01-29T19:01:43.192Z,11.40
2023-01-29T19:03:15.242Z,10.40
2023-01-29T19:04:47.324Z,12.80
2023-01-29T19:06:19.059Z,13.30
2023-01-29T19:07:52.134Z,10.40
2023-01-29T19:09:25.078Z,12.30
2023-01-29T19:10:57.816Z,10.10
2023-01-29T19:12:29.614Z,10.70
2023-01-29T19:14:01.315Z,10.30
2023-01-29T19:15:33.422Z,12.10
2023-01-29T19:17:05.244Z,12.10
2023-01-29T19:18:37.687Z,11.30
2023-01-29T19:20:11.100Z,12.60
2023-01-29T19:21:43.353Z,11.90
2023-01-29T19:23:15.093Z,12.20
2023-01-29T19:24:46.921Z,9.60
2023-01-29T19:26:19.370Z,8.10
2023-01-29T19:27:51.290Z,11.90
2023-01-29T19:29:23.428Z,9.90
2023-01-29T19:30:59.966Z,8.80
2023-01-29T19:32:32.745Z,12.70
2023-01-29T19:34:04.820Z,11.90
2023-01-29T19:35:36.666Z,10.90
2023-01-29T19:37:08.506Z,8.80
2023-01-29T19:38:41.624Z,12.10
2023-01-29T19:40:13.692Z,12.00
2023-01-29T19:41:45.509Z,10.80
2023-01-29T19:43:18.667Z,10.40
2023-01-29T19:44:52.087Z,6.50
2023-01-29T19:46:23.910Z,9.80
2023-01-29T19:47:55.759Z,11.20
2023-01-29T19:49:27.571Z,10.00
2023-01-29T19:51:08.478Z,11.40
2023-01-29T19:52:51.129Z,11.10
2023-01-29T19:54:23.360Z,10.40
2023-01-29T19:56:07.613Z,11.70
2023-01-29T19:57:39.960Z,10.80
2023-01-29T19:59:11.941Z,9.50
2023-01-29T20:00:43.664Z,10.20
2023-01-29T20:02:15.436Z,9.90
2023-01-29T20:03:49.489Z,11.00
2023-01-29T20:05:21.216Z,12.50
2023-01-29T20:06:52.915Z,11.10
2023-01-29T20:08:24.712Z,11.60
2023-01-29T20:09:56.446Z,12.20
2023-01-29T20:11:28.781Z,11.10
2023-01-29T20:13:00.792Z,9.60
2023-01-29T20:14:32.535Z,11.20
2023-01-29T20:16:05.487Z,11.70
2023-01-29T20:17:37.511Z,8.80
2023-01-29T20:19:13.657Z,10.70
2023-01-29T20:20:50.394Z,11.10
2023-01-29T20:22:22.317Z,10.30
2023-01-29T20:23:54.556Z,10.60
2023-01-29T20:25:26.349Z,9.00
2023-01-29T20:26:58.911Z,9.30
2023-01-29T20:28:30.753Z,11.60
2023-01-29T20:30:02.431Z,9.80
2023-01-29T20:31:34.247Z,11.80
2023-01-29T20:33:07.298Z,9.20
2023-01-29T20:34:39.155Z,11.50
2023-01-29T20:36:14.806Z,9.60
2023-01-29T20:37:46.746Z,11.40
2023-01-29T20:39:18.682Z,11.90
2023-01-29T20:40:50.444Z,11.20
2023-01-29T20:42:22.229Z,9.30
2023-01-29T20:43:54.625Z,11.70
2023-01-29T20:45:27.177Z,8.50
2023-01-29T20:47:01.880Z,9.20
2023-01-29T20:48:34.084Z,9.90
2023-01-29T20:50:08.726Z,9.30
2023-01-29T20:51:40.585Z,8.90
2023-01-29T20:53:12.432Z,10.10
2023-01-29T20:54:44.397Z,9.50
2023-01-29T20:56:17.588Z,8.90
2023-01-29T20:58:05.848Z,10.50
2023-01-29T20:59:38.433Z,8.80
2023-01-29T21:01:17.807Z,10.20
2023-01-29T21:02:49.518Z,11.60
2023-01-29T21:04:21.435Z,9.90
2023-01-29T21:05:54.434Z,9.90
2023-01-29T21:07:26.195Z,10.90
2023-01-29T21:08:58.129Z,11.80
2023-01-29T21:10:29.883Z,9.00
2023-01-29T21:12:01.734Z,8.80
2023-01-29T21:13:33.871Z,11.80
2023-01-29T21:15:06.469Z,12.00
2023-01-29T21:16:38.263Z,8.60
2023-01-29T21:18:10.562Z,12.40
2023-01-29T21:19:43.978Z,11.80
2023-01-29T21:21:15.665Z,9.80
2023-01-29T21:22:49.079Z,10.70
2023-01-29T21:24:20.870Z,10.20
2023-01-29T21:25:52.625Z,12.80
2023-01-29T21:27:25.619Z,13.00